Time;durP1;ratioP1;P1;durP2;ratioP2;P2;SDS_P1;SDS_P2;PMS_P1;PMS_P2;Temp;Humidity;BMP_temperature;BMP_pressure;BME280_temperature;BME280_humidity;BME280_pressure;Samples;Min_cycle;Max_cycle;Signal;HPM_P1;HPM_P2
2023/10/16 00:01:03;;;;;;;6.20;1.08;;;8.30;99.90;;;;;;5091494;28;20047;-49
2023/10/16 00:03:30;;;;;;;2.20;0.80;;;8.30;99.90;;;;;;5091202;28;20055;-49
2023/10/16 00:05:56;;;;;;;8.02;1.00;;;8.30;99.90;;;;;;5091542;28;20036;-53
2023/10/16 00:08:22;;;;;;;4.28;0.70;;;8.30;99.90;;;;;;5091182;28;20509;-52
2023/10/16 00:10:57;;;;;;;3.70;0.85;;;8.30;99.90;;;;;;5091593;28;20040;-48
2023/10/16 00:13:27;;;;;;;5.97;1.15;;;8.30;99.90;;;;;;5090858;28;20494;-48
2023/10/16 00:15:57;;;;;;;8.18;1.15;;;8.20;99.90;;;;;;5091308;28;20111;-48
2023/10/16 00:18:24;;;;;;;3.50;0.95;;;8.30;99.90;;;;;;5091149;28;20055;-48
2023/10/16 00:20:56;;;;;;;5.05;0.80;;;8.30;99.90;;;;;;5091043;28;20049;-53
2023/10/16 00:23:25;;;;;;;2.88;0.85;;;8.20;99.90;;;;;;5091573;28;20362;-48
2023/10/16 00:25:51;;;;;;;;;;;8.30;99.90;;;;;;5091742;28;20040;-50
2023/10/16 00:28:23;;;;;;;4.80;1.25;;;8.20;99.90;;;;;;5091345;28;19916;-50
2023/10/16 00:30:50;;;;;;;2.33;0.80;;;8.20;99.90;;;;;;5091114;28;20032;-48
2023/10/16 00:33:16;;;;;;;2.67;0.93;;;8.30;99.90;;;;;;5090990;28;20107;-46
2023/10/16 00:35:43;;;;;;;3.35;0.90;;;8.20;99.90;;;;;;5091370;28;20066;-49
2023/10/16 00:38:13;;;;;;;3.58;0.88;;;8.30;99.90;;;;;;5073422;28;20401;-50
2023/10/16 00:40:51;;;;;;;5.60;0.93;;;8.20;99.90;;;;;;5056838;28;20040;-47
2023/10/16 00:43:22;;;;;;;3.58;0.82;;;8.30;99.90;;;;;;5091071;28;20032;-48
2023/10/16 00:45:48;;;;;;;4.18;0.88;;;8.20;99.90;;;;;;5073039;28;20538;-48
2023/10/16 00:48:16;;;;;;;7.82;0.80;;;8.20;99.90;;;;;;5091289;28;20107;-50
2023/10/16 00:50:49;;;;;;;3.17;0.77;;;8.30;99.90;;;;;;5091032;28;20493;-52
2023/10/16 00:53:23;;;;;;;3.92;0.70;;;8.20;99.90;;;;;;5091591;28;20048;-49
2023/10/16 00:55:50;;;;;;;3.22;0.65;;;8.20;99.90;;;;;;5094882;28;20032;-50
2023/10/16 00:58:18;;;;;;;5.70;0.75;;;8.20;99.90;;;;;;5094821;28;20036;-52
2023/10/16 01:00:48;;;;;;;1.98;0.60;;;8.20;99.90;;;;;;5095002;28;20397;-50
2023/10/16 01:03:14;;;;;;;4.03;1.10;;;8.20;99.90;;;;;;5094731;28;20040;-50
2023/10/16 01:05:42;;;;;;;3.15;0.93;;;8.20;99.90;;;;;;5094573;28;20544;-48
2023/10/16 01:08:09;;;;;;;4.00;1.13;;;8.20;99.90;;;;;;5094757;28;20086;-49
2023/10/16 01:10:37;;;;;;;5.28;1.00;;;8.20;99.90;;;;;;5094295;28;20032;-51
2023/10/16 01:13:08;;;;;;;4.93;0.82;;;8.20;99.90;;;;;;5094549;28;20055;-53
2023/10/16 01:15:34;;;;;;;2.88;0.70;;;8.20;99.90;;;;;;5076335;28;20543;-50
2023/10/16 01:18:00;;;;;;;3.13;0.80;;;8.20;99.90;;;;;;5094348;28;20048;-49
2023/10/16 01:20:26;;;;;;;4.32;0.85;;;8.20;99.90;;;;;;5093064;28;20028;-49
2023/10/16 01:22:52;;;;;;;2.97;0.70;;;8.10;99.90;;;;;;5094362;28;20059;-48
2023/10/16 01:25:18;;;;;;;5.28;1.08;;;8.10;99.90;;;;;;5094258;28;20425;-50
2023/10/16 01:27:44;;;;;;;2.78;0.60;;;8.20;99.90;;;;;;5094088;28;20416;-48
2023/10/16 01:30:11;;;;;;;3.53;0.50;;;8.20;99.90;;;;;;5094353;28;20116;-49
2023/10/16 01:32:39;;;;;;;4.40;0.65;;;8.20;99.90;;;;;;5094126;28;20036;-51
2023/10/16 01:35:08;;;;;;;3.50;0.88;;;8.20;99.90;;;;;;5094227;28;20513;-51
2023/10/16 01:37:38;;;;;;;;;;;8.20;99.90;;;;;;5113678;28;20136;-47
2023/10/16 01:43:03;;;;;;;8.85;1.02;;;8.20;99.90;;;;;;5069276;28;20042;-50
2023/10/16 01:45:30;;;;;;;3.13;0.65;;;8.20;99.90;;;;;;5114540;28;20047;-49
2023/10/16 01:47:55;;;;;;;3.35;0.70;;;8.20;99.90;;;;;;5114389;28;20035;-49
2023/10/16 01:50:21;;;;;;;4.07;0.90;;;8.20;99.90;;;;;;5114075;28;20039;-50
2023/10/16 01:52:48;;;;;;;6.18;0.80;;;8.10;99.90;;;;;;5114103;28;20047;-49
2023/10/16 01:55:18;;;;;;;2.40;0.70;;;8.10;99.90;;;;;;5114254;28;20032;-49
2023/10/16 01:57:47;;;;;;;3.97;1.08;;;8.10;99.90;;;;;;5114138;28;20405;-52
2023/10/16 02:00:18;;;;;;;3.33;0.70;;;8.00;99.90;;;;;;5096072;28;20426;-52
2023/10/16 02:02:45;;;;;;;3.85;0.80;;;8.00;99.90;;;;;;5113863;28;20181;-48
2023/10/16 02:05:11;;;;;;;3.70;0.82;;;7.90;99.90;;;;;;5113657;28;20039;-52
2023/10/16 02:07:41;;;;;;;7.10;1.13;;;8.00;99.90;;;;;;5114160;28;20051;-49
2023/10/16 02:10:12;;;;;;;5.88;0.90;;;8.00;99.90;;;;;;5113867;28;20405;-48
2023/10/16 02:12:39;;;;;;;3.25;0.75;;;8.00;99.90;;;;;;5113900;28;20118;-50
2023/10/16 02:15:07;;;;;;;4.70;1.05;;;8.00;99.90;;;;;;5113666;28;20393;-48
2023/10/16 02:17:37;;;;;;;2.17;0.70;;;8.10;99.90;;;;;;5114017;28;20043;-51
2023/10/16 02:20:11;;;;;;;3.92;1.10;;;8.10;99.90;;;;;;5114294;28;20767;-48
2023/10/16 02:22:37;;;;;;;4.20;0.98;;;8.10;99.90;;;;;;5113807;28;20039;-47
2023/10/16 02:25:08;;;;;;;4.50;1.75;;;8.10;99.90;;;;;;5113464;28;20040;-51
2023/10/16 02:27:35;;;;;;;3.85;0.85;;;8.10;99.90;;;;;;5113424;28;20077;-48
2023/10/16 02:30:20;;;;;;;4.60;2.03;;;8.10;99.90;;;;;;5113197;28;20047;-50
2023/10/16 02:32:45;;;;;;;3.05;0.68;;;8.10;99.90;;;;;;5113428;28;20501;-49
2023/10/16 02:35:13;;;;;;;4.88;1.08;;;8.10;99.90;;;;;;5113406;28;20114;-51
2023/10/16 02:37:40;;;;;;;3.97;0.90;;;8.10;99.90;;;;;;5113096;28;20059;-48
2023/10/16 02:40:11;;;;;;;3.17;0.90;;;8.10;99.90;;;;;;5113219;28;20058;-49
2023/10/16 02:42:40;;;;;;;4.13;0.75;;;8.10;99.90;;;;;;5113353;28;20051;-49
2023/10/16 02:45:23;;;;;;;4.28;1.02;;;8.10;99.90;;;;;;5113386;28;20036;-49
2023/10/16 02:47:49;;;;;;;3.30;0.82;;;8.10;99.90;;;;;;5113283;28;20051;-52
2023/10/16 02:50:15;;;;;;;6.07;0.70;;;8.00;99.90;;;;;;5094877;28;20035;-51
2023/10/16 02:52:41;;;;;;;1.83;0.68;;;8.00;99.90;;;;;;5112841;28;20077;-51
2023/10/16 02:55:07;;;;;;;4.60;1.55;;;8.00;99.90;;;;;;5112788;28;20067;-53
2023/10/16 02:57:33;;;;;;;4.93;0.70;;;8.00;99.90;;;;;;5112940;28;20046;-52
2023/10/16 02:59:59;;;;;;;2.88;0.80;;;8.10;99.90;;;;;;5113010;28;20031;-48
2023/10/16 03:02:26;;;;;;;3.00;0.57;;;8.00;99.90;;;;;;5094697;28;20378;-52
2023/10/16 03:04:54;;;;;;;3.40;1.23;;;8.10;99.90;;;;;;5112913;28;20052;-51
2023/10/16 03:07:20;;;;;;;1.95;0.60;;;8.10;99.90;;;;;;5112525;28;20046;-51
2023/10/16 03:09:52;;;;;;;2.58;0.73;;;8.10;99.90;;;;;;5113129;28;20485;-49
2023/10/16 03:12:21;;;;;;;7.72;0.90;;;8.10;99.90;;;;;;5094406;28;20088;-50
2023/10/16 03:14:57;;;;;;;2.67;0.90;;;8.20;99.90;;;;;;5112817;28;20040;-47
2023/10/16 03:17:25;;;;;;;4.60;1.08;;;8.20;99.90;;;;;;5093569;28;20035;-49
2023/10/16 03:19:57;;;;;;;5.28;1.13;;;8.20;99.90;;;;;;5112455;28;20039;-53
2023/10/16 03:22:23;;;;;;;6.22;1.30;;;8.20;99.90;;;;;;5112654;28;20043;-52
2023/10/16 03:24:49;;;;;;;5.63;1.00;;;8.20;99.90;;;;;;5112710;28;20152;-53
2023/10/16 03:27:30;;;;;;;5.82;1.00;;;8.20;99.90;;;;;;5094433;28;20039;-50
2023/10/16 03:29:56;;;;;;;4.97;0.80;;;8.30;99.90;;;;;;5112352;28;20517;-52
2023/10/16 03:32:23;;;;;;;5.63;1.00;;;8.30;99.90;;;;;;5112064;28;20035;-50
2023/10/16 03:34:50;;;;;;;5.55;1.20;;;8.40;99.90;;;;;;5112320;28;20040;-48
2023/10/16 03:37:19;;;;;;;4.57;0.93;;;8.40;99.90;;;;;;5112122;28;20039;-53
2023/10/16 03:39:46;;;;;;;6.10;0.93;;;8.40;99.90;;;;;;5112411;28;20028;-50
2023/10/16 03:42:17;;;;;;;7.10;1.00;;;8.40;99.90;;;;;;5112165;28;20438;-52
2023/10/16 03:44:43;;;;;;;5.60;1.20;;;8.40;99.90;;;;;;5112084;28;20367;-51
2023/10/16 03:47:10;;;;;;;3.67;1.00;;;8.50;99.90;;;;;;5112317;28;20043;-53
2023/10/16 03:49:36;;;;;;;3.70;1.27;;;8.50;99.90;;;;;;5112137;28;20410;-50
2023/10/16 03:52:02;;;;;;;6.43;1.00;;;8.50;99.90;;;;;;5112095;28;20035;-52
2023/10/16 03:54:34;;;;;;;3.53;0.98;;;8.50;99.90;;;;;;5111851;28;20031;-49
2023/10/16 03:57:00;;;;;;;5.95;0.98;;;8.50;99.90;;;;;;5112366;28;20193;-49
2023/10/16 03:59:30;;;;;;;5.20;0.88;;;8.50;99.90;;;;;;5112034;28;20043;-52
2023/10/16 04:01:56;;;;;;;4.15;0.85;;;8.50;99.90;;;;;;5112218;28;20036;-50
2023/10/16 04:04:25;;;;;;;4.78;1.00;;;8.50;99.90;;;;;;5112007;28;20035;-50
2023/10/16 04:06:58;;;;;;;6.63;1.00;;;8.50;99.90;;;;;;5111851;28;20477;-47
2023/10/16 04:09:33;;;;;;;2.15;0.90;;;8.50;99.90;;;;;;5093588;28;20035;-52
2023/10/16 04:12:02;;;;;;;5.72;0.85;;;8.50;99.90;;;;;;5111884;28;20050;-48
2023/10/16 04:14:50;;;;;;;5.90;1.00;;;8.50;99.90;;;;;;5111632;28;20096;-50
2023/10/16 04:17:18;;;;;;;3.80;1.05;;;8.50;99.90;;;;;;5112043;28;20395;-51
2023/10/16 04:19:52;;;;;;;3.67;1.17;;;8.50;99.90;;;;;;5111798;28;20061;-50
2023/10/16 04:22:23;;;;;;;4.13;1.23;;;8.50;99.90;;;;;;5111621;28;20047;-49
2023/10/16 04:24:54;;;;;;;2.53;1.05;;;8.50;99.90;;;;;;5111775;28;20105;-52
2023/10/16 04:29:49;;;;;;;5.93;1.20;;;8.40;99.90;;;;;;5116033;28;20078;-51
2023/10/16 04:37:49;;;;;;;3.08;0.70;;;8.40;99.90;;;;;;5088157;28;20075;-52
2023/10/16 04:43:07;;;;;;;6.90;2.08;;;8.40;99.90;;;;;;5115410;28;19916;-52
2023/10/16 04:45:39;;;;;;;5.13;1.02;;;8.30;99.90;;;;;;5115492;28;20043;-53
2023/10/16 05:03:35;;;;;;;5.13;1.23;;;8.30;99.90;;;;;;5115009;28;20565;-51
2023/10/16 05:11:33;;;;;;;3.67;1.25;;;8.20;99.90;;;;;;5115101;28;20546;-51
2023/10/16 05:17:21;;;;;;;3.58;0.88;;;8.20;99.90;;;;;;5114844;28;20573;-50
2023/10/16 05:19:53;;;;;;;8.48;1.50;;;8.10;99.90;;;;;;5114776;28;20558;-50
2023/10/16 06:14:22;;;;;;;6.95;1.65;;;8.20;99.90;;;;;;5113854;28;20177;-51
2023/10/16 06:16:56;;;;;;;10.20;1.90;;;8.20;99.90;;;;;;5113707;28;20486;-52
2023/10/16 06:19:24;;;;;;;4.78;1.50;;;8.30;99.90;;;;;;5113873;28;21124;-47
2023/10/16 06:21:51;;;;;;;4.45;1.45;;;8.30;99.90;;;;;;5113910;28;20044;-51
2023/10/16 06:24:35;;;;;;;6.45;2.30;;;8.30;99.90;;;;;;5113480;28;20032;-50
2023/10/16 06:27:09;;;;;;;7.72;1.63;;;8.30;99.90;;;;;;5113510;28;20040;-53
2023/10/16 06:29:35;;;;;;;8.23;1.70;;;8.30;99.90;;;;;;5113413;28;20073;-49
2023/10/16 06:32:20;;;;;;;5.45;1.77;;;8.30;99.90;;;;;;5113721;28;20405;-52
2023/10/16 06:34:57;;;;;;;7.22;1.75;;;8.30;99.90;;;;;;5113593;28;20036;-52
2023/10/16 06:37:23;;;;;;;3.72;1.52;;;8.40;99.90;;;;;;5113150;28;20467;-52
2023/10/16 06:39:54;;;;;;;10.18;1.70;;;8.50;99.90;;;;;;5113017;28;20081;-50
2023/10/16 06:42:23;;;;;;;7.90;1.77;;;8.50;99.90;;;;;;5113377;28;20118;-49
2023/10/16 06:45:03;;;;;;;3.85;1.70;;;8.50;99.90;;;;;;5078404;28;20027;-51
2023/10/16 06:47:35;;;;;;;5.45;1.58;;;8.50;99.90;;;;;;5113212;28;20048;-51
2023/10/16 06:50:02;;;;;;;10.40;2.13;;;8.50;99.90;;;;;;5113057;28;20115;-53
2023/10/16 06:52:27;;;;;;;6.50;1.90;;;8.50;99.90;;;;;;5111761;28;20045;-52
2023/10/16 06:54:53;;;;;;;7.15;2.00;;;8.60;99.90;;;;;;5113110;28;20028;-54
2023/10/16 06:57:19;;;;;;;8.43;2.25;;;8.60;99.90;;;;;;5113031;28;20075;-50
2023/10/16 06:59:45;;;;;;;3.45;1.60;;;8.60;99.90;;;;;;5113081;28;20035;-48
2023/10/16 07:02:20;;;;;;;3.83;1.70;;;8.70;99.90;;;;;;5112971;28;20520;-51
2023/10/16 07:04:47;;;;;;;4.95;1.70;;;8.70;99.90;;;;;;5112764;28;20119;-51
2023/10/16 07:07:16;;;;;;;3.67;1.60;;;8.80;99.90;;;;;;5113123;28;20099;-53
2023/10/16 07:09:48;;;;;;;8.05;2.10;;;8.80;99.90;;;;;;5094737;28;20381;-53
2023/10/16 07:12:18;;;;;;;7.25;1.98;;;8.90;99.90;;;;;;5112728;28;20027;-50
2023/10/16 07:14:54;;;;;;;6.78;1.23;;;9.00;99.90;;;;;;5112723;28;20481;-51
2023/10/16 07:17:22;;;;;;;8.98;2.30;;;9.20;99.90;;;;;;5112613;28;20039;-49
2023/10/16 07:19:48;;;;;;;6.85;1.63;;;9.20;99.90;;;;;;5112596;28;20074;-49
2023/10/16 07:22:16;;;;;;;8.55;2.00;;;9.20;99.90;;;;;;5112864;28;20066;-53
2023/10/16 07:24:42;;;;;;;4.40;1.58;;;9.30;99.90;;;;;;5112503;28;20043;-50
2023/10/16 07:27:12;;;;;;;7.47;1.67;;;9.30;99.90;;;;;;5112433;28;20032;-51
2023/10/16 07:29:41;;;;;;;3.97;1.80;;;9.30;99.90;;;;;;5094284;28;20042;-53
2023/10/16 07:32:10;;;;;;;5.03;1.58;;;9.30;99.90;;;;;;5112056;28;20036;-54
2023/10/16 07:34:37;;;;;;;7.63;1.80;;;9.30;99.90;;;;;;5112500;28;20050;-53
2023/10/16 07:37:07;;;;;;;5.78;1.30;;;9.40;99.90;;;;;;5102650;28;20070;-53
2023/10/16 07:39:34;;;;;;;4.13;1.63;;;9.40;99.90;;;;;;5092066;28;20079;-50
2023/10/16 07:42:03;;;;;;;5.60;1.58;;;9.50;99.90;;;;;;5091754;28;20489;-49
2023/10/16 07:44:29;;;;;;;4.15;1.50;;;9.50;99.90;;;;;;5091935;28;20044;-52
2023/10/16 07:46:54;;;;;;;7.10;1.85;;;9.50;99.90;;;;;;5091849;28;20436;-53
2023/10/16 07:49:25;;;;;;;8.05;1.90;;;9.60;99.90;;;;;;5091960;28;20071;-53
2023/10/16 07:51:52;;;;;;;5.95;2.35;;;9.60;99.90;;;;;;5092080;28;20450;-50
2023/10/16 07:54:22;;;;;;;5.68;2.13;;;9.60;99.90;;;;;;5092038;28;20047;-51
2023/10/16 07:56:50;;;;;;;10.85;2.35;;;9.60;99.90;;;;;;5091595;28;20096;-52
2023/10/16 07:59:18;;;;;;;6.43;2.45;;;9.70;99.90;;;;;;5091750;28;20032;-52
2023/10/16 08:02:00;;;;;;;8.52;3.00;;;9.60;99.90;;;;;;5091741;28;20090;-50
2023/10/16 08:06:57;;;;;;;10.35;2.70;;;9.70;99.90;;;;;;5091471;28;20044;-50
2023/10/16 08:12:12;;;;;;;3.45;1.83;;;9.90;99.90;;;;;;5091928;28;20054;-48
2023/10/16 08:14:42;;;;;;;7.15;1.92;;;9.90;99.90;;;;;;5091620;28;20040;-53
2023/10/16 08:17:17;;;;;;;8.73;2.10;;;10.00;99.90;;;;;;5091526;28;20441;-49
2023/10/16 08:19:46;;;;;;;6.88;2.08;;;10.00;99.90;;;;;;5091304;28;20036;-51
2023/10/16 08:22:15;;;;;;;9.82;1.98;;;10.10;99.90;;;;;;5091563;28;20044;-51
2023/10/16 08:24:44;;;;;;;;;;;10.20;99.90;;;;;;5091841;28;20393;-51
2023/10/16 08:27:39;;;;;;;4.88;1.50;;;10.20;99.90;;;;;;5091096;28;19919;-52
2023/10/16 08:30:17;;;;;;;4.18;1.35;;;10.20;99.90;;;;;;5077228;28;20487;-52
2023/10/16 08:35:17;;;;;;;9.52;1.52;;;10.40;99.90;;;;;;5091580;28;20032;-52
2023/10/16 08:37:58;;;;;;;6.97;1.63;;;10.50;99.90;;;;;;5091585;28;20060;-50
2023/10/16 08:40:32;;;;;;;7.88;1.45;;;10.50;99.90;;;;;;5091137;28;20051;-53
2023/10/16 08:43:00;;;;;;;11.27;1.85;;;10.50;99.90;;;;;;5091479;28;20040;-50
2023/10/16 08:45:32;;;;;;;12.18;3.47;;;10.60;99.90;;;;;;5073095;28;20406;-52
2023/10/16 08:47:58;;;;;;;11.90;3.30;;;10.60;99.90;;;;;;5077552;28;20050;-50
2023/10/16 08:50:43;;;;;;;11.80;2.58;;;10.70;99.90;;;;;;5091097;28;20039;-52
2023/10/16 08:56:08;;;;;;;12.48;3.00;;;10.80;99.90;;;;;;5052369;28;20051;-51
2023/10/16 08:58:41;;;;;;;8.77;2.78;;;10.90;99.90;;;;;;5091157;28;20053;-49
2023/10/16 09:01:08;;;;;;;11.10;3.25;;;11.10;99.90;;;;;;5090988;28;20090;-51
2023/10/16 09:03:38;;;;;;;8.27;3.03;;;11.10;99.90;;;;;;5073253;28;20040;-52
2023/10/16 09:06:04;;;;;;;8.68;2.25;;;11.20;99.90;;;;;;5091286;28;20051;-50
2023/10/16 09:08:35;;;;;;;7.85;1.42;;;11.20;99.90;;;;;;5091319;28;20611;-49
2023/10/16 09:11:08;;;;;;;7.28;1.45;;;11.10;99.90;;;;;;5090928;28;20449;-50
2023/10/16 09:13:38;;;;;;;9.95;1.58;;;11.10;99.90;;;;;;5091036;28;20044;-49
2023/10/16 09:16:13;;;;;;;6.60;1.20;;;11.00;99.90;;;;;;5093958;28;20078;-50
2023/10/16 09:18:39;;;;;;;6.68;1.30;;;11.00;99.90;;;;;;5095090;28;20453;-50
2023/10/16 09:24:03;;;;;;;9.13;1.30;;;11.00;99.90;;;;;;5069263;28;20051;-51
2023/10/16 09:26:32;;;;;;;5.72;1.02;;;11.00;99.90;;;;;;5094317;28;20044;-52
2023/10/16 09:29:04;;;;;;;5.10;1.65;;;11.00;99.90;;;;;;5094295;28;20482;-49
2023/10/16 09:31:31;;;;;;;4.28;1.20;;;11.00;99.90;;;;;;5094245;28;20066;-51
2023/10/16 09:33:57;;;;;;;10.95;1.40;;;11.00;99.90;;;;;;5094026;28;20036;-50
2023/10/16 09:36:23;;;;;;;4.78;1.20;;;11.10;99.90;;;;;;5097829;28;20052;-48
2023/10/16 09:38:56;;;;;;;5.88;1.13;;;11.00;99.90;;;;;;5114388;28;20032;-46
2023/10/16 09:43:56;;;;;;;7.85;1.35;;;11.00;99.90;;;;;;5114534;28;20511;-50
2023/10/16 09:49:13;;;;;;;4.78;1.00;;;11.20;99.90;;;;;;5114417;28;20104;-51
2023/10/16 09:51:39;;;;;;;4.75;1.10;;;11.20;99.90;;;;;;5114281;28;20054;-50
2023/10/16 09:54:09;;;;;;;7.60;1.05;;;11.30;99.90;;;;;;5114145;28;20040;-51
2023/10/16 09:56:39;;;;;;;4.70;1.05;;;11.40;99.90;;;;;;5096404;28;20102;-50
2023/10/16 09:59:12;;;;;;;4.50;1.00;;;11.50;99.90;;;;;;5114227;28;20430;-48
2023/10/16 10:01:45;;;;;;;5.00;1.42;;;11.50;99.90;;;;;;5114286;28;20097;-49
2023/10/16 10:04:19;;;;;;;2.67;1.17;;;11.60;99.90;;;;;;5114065;28;20499;-53
2023/10/16 10:06:50;;;;;;;3.78;1.30;;;11.60;99.90;;;;;;5096022;28;20074;-49
2023/10/16 10:12:22;;;;;;;5.25;1.23;;;11.70;99.90;;;;;;5114059;28;20060;-49
2023/10/16 10:15:03;;;;;;;10.70;1.00;;;11.70;99.90;;;;;;5112747;28;20089;-54
2023/10/16 10:17:33;;;;;;;5.60;1.23;;;11.70;99.90;;;;;;5113690;28;20069;-50
2023/10/16 10:20:08;;;;;;;5.25;1.15;;;11.80;99.90;;;;;;5113805;28;20111;-51
2023/10/16 10:22:38;;;;;;;5.75;1.40;;;11.90;99.90;;;;;;5104290;28;20055;-48
2023/10/16 10:25:22;;;;;;;8.30;1.08;;;11.90;99.90;;;;;;5113423;28;20629;-49
2023/10/16 10:27:49;;;;;;;6.10;1.48;;;12.00;99.90;;;;;;5113624;28;20046;-49
2023/10/16 10:30:25;;;;;;;6.60;1.20;;;12.10;99.90;;;;;;5113577;28;20050;-49
2023/10/16 10:32:57;;;;;;;7.88;1.58;;;12.10;99.90;;;;;;5095710;28;20145;-49
2023/10/16 10:35:38;;;;;;;2.60;0.75;;;12.20;99.90;;;;;;5113203;28;20039;-51
2023/10/16 10:38:18;;;;;;;6.45;1.08;;;12.20;99.90;;;;;;5095053;28;20048;-50
2023/10/16 10:41:03;;;;;;;;;;;12.30;99.90;;;;;;5113763;28;20349;-52
2023/10/16 10:43:46;;;;;;;3.13;1.08;;;12.20;99.90;;;;;;5113158;28;19938;-52
2023/10/16 10:46:22;;;;;;;2.00;0.80;;;12.20;99.90;;;;;;5100709;28;20042;-50
2023/10/16 10:48:48;;;;;;;5.38;1.00;;;12.20;99.90;;;;;;5113231;28;20043;-50
2023/10/16 10:51:16;;;;;;;5.60;1.10;;;12.20;99.90;;;;;;5113207;28;20035;-50
2023/10/16 10:53:55;;;;;;;9.07;1.23;;;12.30;99.90;;;;;;5113608;28;20044;-46
2023/10/16 10:56:22;;;;;;;5.45;1.00;;;12.40;99.90;;;;;;5100138;28;20035;-49
2023/10/16 10:58:49;;;;;;;6.18;0.90;;;12.50;99.90;;;;;;5113047;28;20394;-51
2023/10/16 11:03:45;;;;;;;4.38;0.98;;;12.60;99.90;;;;;;5113080;28;20043;-47
2023/10/16 11:06:41;;;;;;;3.95;0.80;;;12.70;99.90;;;;;;5112553;28;20044;-57
2023/10/16 11:09:18;;;;;;;3.83;0.93;;;12.80;99.90;;;;;;5112686;28;20044;-48
2023/10/16 11:11:45;;;;;;;4.90;0.95;;;12.70;99.90;;;;;;5112945;28;20071;-49
2023/10/16 11:14:12;;;;;;;2.75;0.88;;;12.60;99.90;;;;;;5112400;28;20063;-48
2023/10/16 11:16:45;;;;;;;4.70;0.85;;;12.60;99.90;;;;;;5112715;28;20397;-45
2023/10/16 11:19:11;;;;;;;3.10;0.90;;;12.60;99.90;;;;;;5112464;28;20036;-52
2023/10/16 11:21:43;;;;;;;6.82;1.05;;;12.50;99.90;;;;;;5112617;28;20078;-50
2023/10/16 11:24:11;;;;;;;6.55;0.80;;;12.50;99.90;;;;;;5112431;28;20072;-51
2023/10/16 11:26:38;;;;;;;6.60;0.90;;;12.50;99.90;;;;;;5112391;28;20114;-50
2023/10/16 11:29:04;;;;;;;3.90;1.00;;;12.50;99.90;;;;;;5112533;28;20104;-50
2023/10/16 11:31:31;;;;;;;6.50;1.20;;;12.50;99.90;;;;;;5092666;28;20058;-52
2023/10/16 11:34:01;;;;;;;6.30;1.45;;;12.50;99.90;;;;;;5109712;28;20036;-51
2023/10/16 11:36:33;;;;;;;6.07;1.17;;;12.50;99.90;;;;;;5093869;28;20047;-52
2023/10/16 11:39:03;;;;;;;1.23;0.70;;;12.50;99.90;;;;;;5112060;28;20035;-50
2023/10/16 11:41:33;;;;;;;4.63;1.15;;;12.40;99.90;;;;;;5111837;28;20470;-50
2023/10/16 11:44:13;;;;;;;6.70;1.48;;;12.40;99.90;;;;;;5090898;28;20390;-51
2023/10/16 11:46:45;;;;;;;4.32;1.10;;;12.40;99.90;;;;;;5110345;28;20040;-51
2023/10/16 11:51:52;;;;;;;3.60;1.00;;;12.60;99.90;;;;;;5111765;28;20039;-51
2023/10/16 11:54:21;;;;;;;8.63;1.55;;;12.70;99.90;;;;;;5111907;28;20078;-47
2023/10/16 11:56:59;;;;;;;12.48;1.92;;;12.70;99.90;;;;;;5093488;28;20039;-45
2023/10/16 11:59:25;;;;;;;8.15;1.13;;;12.70;99.90;;;;;;5111675;28;20067;-47
2023/10/16 12:01:52;;;;;;;8.05;1.10;;;12.70;99.90;;;;;;5111870;28;20035;-47
2023/10/16 12:04:19;;;;;;;3.95;1.20;;;12.70;99.90;;;;;;5111538;28;20035;-49
2023/10/16 12:06:48;;;;;;;6.55;1.35;;;12.70;99.90;;;;;;5112206;28;20477;-48
2023/10/16 12:09:19;;;;;;;8.88;1.58;;;12.60;99.90;;;;;;5111998;28;20242;-50
2023/10/16 12:11:52;;;;;;;4.38;1.05;;;12.60;99.90;;;;;;5092235;28;20042;-51
2023/10/16 12:14:18;;;;;;;9.20;1.83;;;12.60;99.90;;;;;;5111570;28;20050;-51
2023/10/16 12:16:46;;;;;;;8.70;1.23;;;12.60;99.90;;;;;;5093895;28;20036;-49
2023/10/16 12:19:16;;;;;;;4.10;1.13;;;12.60;99.90;;;;;;5091902;28;20036;-48
2023/10/16 12:21:50;;;;;;;5.45;1.05;;;12.70;99.90;;;;;;5111842;28;20043;-49
2023/10/16 12:24:16;;;;;;;7.18;0.95;;;12.70;99.90;;;;;;5111632;28;20044;-51
2023/10/16 12:26:42;;;;;;;5.35;1.52;;;12.70;99.90;;;;;;5111437;28;20071;-49
2023/10/16 12:29:09;;;;;;;8.70;1.35;;;12.70;99.90;;;;;;5111986;28;20427;-47
2023/10/16 12:31:41;;;;;;;7.30;1.42;;;12.70;99.90;;;;;;5111638;28;20039;-47
2023/10/16 12:34:11;;;;;;;9.25;1.48;;;12.70;99.90;;;;;;5111499;28;20031;-46
2023/10/16 12:36:37;;;;;;;6.13;0.98;;;12.20;99.90;;;;;;5111476;28;20060;-47
2023/10/16 12:39:13;;;;;;;4.47;1.23;;;12.80;99.90;;;;;;5111321;28;20043;-50
2023/10/16 12:41:41;;;;;;;6.70;1.38;;;12.70;99.90;;;;;;5112057;28;20131;-50
2023/10/16 12:44:09;;;;;;;1.87;0.73;;;12.80;99.90;;;;;;5111801;28;20122;-51
2023/10/16 12:46:38;;;;;;;8.63;1.63;;;12.80;99.90;;;;;;5111545;28;20119;-49
2023/10/16 12:49:07;;;;;;;2.83;0.93;;;12.80;99.90;;;;;;5113133;28;20525;-50
2023/10/16 12:51:34;;;;;;;5.93;1.00;;;12.90;99.90;;;;;;5097260;28;20043;-50
2023/10/16 12:54:03;;;;;;;7.43;1.25;;;12.90;99.90;;;;;;5115369;28;20082;-51
2023/10/16 12:56:31;;;;;;;5.05;0.98;;;12.90;99.90;;;;;;5115451;28;20076;-48
2023/10/16 12:58:58;;;;;;;3.77;1.13;;;12.90;99.90;;;;;;5115092;28;20106;-48
2023/10/16 13:01:24;;;;;;;4.70;1.00;;;13.00;99.90;;;;;;5080153;28;20281;-48
2023/10/16 13:03:49;;;;;;;5.00;0.93;;;13.00;99.90;;;;;;5115399;28;20036;-48
2023/10/16 13:06:15;;;;;;;7.90;1.10;;;13.00;99.90;;;;;;5115110;28;20118;-50
2023/10/16 13:08:42;;;;;;;8.23;1.60;;;13.00;99.90;;;;;;5115145;28;20044;-50
2023/10/16 13:11:08;;;;;;;4.43;1.00;;;13.10;99.90;;;;;;5114986;28;20036;-47
2023/10/16 13:13:34;;;;;;;4.55;1.17;;;13.10;99.90;;;;;;5115011;28;20036;-47
2023/10/16 13:16:01;;;;;;;11.38;1.58;;;13.10;99.90;;;;;;5096714;28;20393;-47
2023/10/16 13:18:27;;;;;;;7.30;1.20;;;13.10;99.90;;;;;;5115204;28;20051;-48
2023/10/16 13:20:58;;;;;;;8.55;1.25;;;13.10;99.90;;;;;;5115010;28;20436;-50
2023/10/16 13:23:25;;;;;;;3.15;0.77;;;13.10;99.90;;;;;;5114786;28;20043;-47
2023/10/16 13:25:56;;;;;;;8.07;1.20;;;13.10;99.90;;;;;;5114956;28;20035;-48
2023/10/16 13:28:23;;;;;;;7.50;1.10;;;13.10;99.90;;;;;;5114538;28;20039;-46
2023/10/16 13:30:51;;;;;;;4.80;0.90;;;13.10;99.90;;;;;;5114969;28;20167;-45
2023/10/16 13:33:17;;;;;;;5.38;0.98;;;13.10;99.90;;;;;;5114574;28;20034;-46
2023/10/16 13:35:44;;;;;;;7.82;1.23;;;13.10;99.90;;;;;;5096427;28;20122;-49
2023/10/16 13:38:10;;;;;;;2.13;0.80;;;13.10;99.90;;;;;;5114528;28;20056;-49
2023/10/16 13:40:35;;;;;;;7.93;1.00;;;13.10;99.90;;;;;;5114460;28;20035;-51
2023/10/16 13:43:11;;;;;;;11.93;1.98;;;13.10;99.90;;;;;;5114690;28;20508;-49
2023/10/16 13:45:38;;;;;;;4.88;0.80;;;13.10;99.90;;;;;;5114448;28;20469;-51
2023/10/16 13:48:04;;;;;;;3.40;0.70;;;13.10;99.90;;;;;;5114543;28;20048;-48
2023/10/16 13:50:30;;;;;;;5.97;1.55;;;13.10;99.90;;;;;;5095867;28;20424;-49
2023/10/16 13:52:56;;;;;;;5.80;1.60;;;13.10;99.90;;;;;;5114198;28;20070;-48
2023/10/16 13:55:24;;;;;;;5.90;1.40;;;13.10;99.90;;;;;;5114309;28;20040;-50
2023/10/16 13:57:53;;;;;;;4.25;0.80;;;13.10;99.90;;;;;;5114050;28;20028;-50
2023/10/16 14:00:29;;;;;;;2.70;0.65;;;13.00;99.90;;;;;;5113759;28;20036;-49
2023/10/16 14:03:16;;;;;;;4.05;1.10;;;13.00;99.90;;;;;;5113909;28;20046;-46
2023/10/16 14:05:46;;;;;;;3.60;0.95;;;13.00;99.90;;;;;;5113974;28;20388;-49
2023/10/16 14:08:17;;;;;;;5.95;1.02;;;13.00;99.90;;;;;;5114460;28;20071;-51
2023/10/16 14:10:57;;;;;;;3.30;1.00;;;13.00;99.90;;;;;;5113937;28;20079;-46
2023/10/16 14:13:33;;;;;;;3.83;0.90;;;12.90;99.90;;;;;;5083230;28;20058;-49
2023/10/16 14:16:11;;;;;;;3.42;1.38;;;12.90;99.90;;;;;;5113780;28;20036;-51
2023/10/16 14:18:43;;;;;;;3.75;0.90;;;12.90;99.90;;;;;;5114336;28;20035;-47
2023/10/16 14:21:13;;;;;;;7.55;1.00;;;12.90;99.90;;;;;;5114044;28;20031;-52
2023/10/16 14:23:40;;;;;;;4.50;0.70;;;12.90;99.90;;;;;;5113639;28;20035;-50
2023/10/16 14:26:24;;;;;;;5.95;1.10;;;12.90;99.90;;;;;;5113761;28;20047;-51
2023/10/16 14:28:59;;;;;;;6.88;1.13;;;12.90;99.90;;;;;;5113763;28;20039;-48
2023/10/16 14:31:26;;;;;;;4.10;1.02;;;12.90;99.90;;;;;;5113422;28;20043;-49
2023/10/16 14:33:53;;;;;;;4.85;1.20;;;12.90;99.90;;;;;;5113349;28;20047;-51
2023/10/16 14:36:19;;;;;;;5.22;1.33;;;12.80;99.90;;;;;;5110190;28;20048;-47
2023/10/16 14:38:45;;;;;;;6.85;1.50;;;12.80;99.90;;;;;;5093009;28;20090;-50
2023/10/16 14:41:17;;;;;;;7.63;1.30;;;12.80;99.90;;;;;;5093097;28;20397;-50
2023/10/16 14:43:46;;;;;;;3.05;0.88;;;12.80;99.90;;;;;;5092868;28;20032;-47
2023/10/16 14:46:13;;;;;;;5.07;1.08;;;12.80;99.90;;;;;;5079146;28;20039;-51
2023/10/16 14:48:43;;;;;;;5.05;1.00;;;12.80;99.90;;;;;;5093029;28;20101;-50
2023/10/16 14:51:16;;;;;;;5.10;1.02;;;12.70;99.90;;;;;;5092924;28;20132;-46
2023/10/16 14:53:44;;;;;;;7.40;1.23;;;12.70;99.90;;;;;;5092538;28;20432;-49
2023/10/16 14:56:11;;;;;;;4.18;1.05;;;12.70;99.90;;;;;;5092731;28;20039;-51
2023/10/16 14:58:38;;;;;;;6.80;1.13;;;12.60;99.90;;;;;;5092908;28;20040;-47
2023/10/16 15:01:16;;;;;;;5.82;1.27;;;12.60;99.90;;;;;;5074625;28;20537;-51
2023/10/16 15:03:48;;;;;;;6.10;1.35;;;12.60;99.90;;;;;;5092772;28;20040;-51